Time;durP1;ratioP1;P1;durP2;ratioP2;P2;SDS_P1;SDS_P2;PMS_P1;PMS_P2;Temp;Humidity;BMP_temperature;BMP_pressure;BME280_temperature;BME280_humidity;BME280_pressure;Samples;Min_cycle;Max_cycle;Signal;HPM_P1;HPM_P2
2024/02/29 00:00:15;;;;;;;34.60;14.20;;;;;;;-1.58;100.00;101656.25;6046122;23;20406;-72
2024/02/29 00:02:42;;;;;;;28.17;13.80;;;;;;;-1.60;100.00;101659.09;6045985;23;20187;-72
2024/02/29 00:05:11;;;;;;;36.03;13.60;;;;;;;-1.66;100.00;101657.34;6045580;23;20563;-72
2024/02/29 00:07:37;;;;;;;32.60;12.37;;;;;;;-1.67;100.00;101658.38;6045262;23;20218;-71
2024/02/29 00:10:05;;;;;;;37.23;13.67;;;;;;;-1.66;100.00;101664.34;6045409;23;20179;-71
2024/02/29 00:12:31;;;;;;;33.57;13.23;;;;;;;-1.67;100.00;101657.59;6045666;23;20198;-71
2024/02/29 00:14:58;;;;;;;33.33;13.80;;;;;;;-1.68;100.00;101654.22;6045429;23;20202;-72
2024/02/29 00:17:24;;;;;;;34.23;12.90;;;;;;;-1.70;100.00;101653.66;6036682;23;20524;-72
2024/02/29 00:19:50;;;;;;;38.40;13.57;;;;;;;-1.67;100.00;101644.66;6045337;23;20167;-72
2024/02/29 00:22:18;;;;;;;38.20;13.40;;;;;;;-1.69;100.00;101646.66;6045645;23;20430;-72
2024/02/29 00:24:44;;;;;;;33.57;14.10;;;;;;;-1.70;100.00;101645.06;6045765;23;20176;-71
2024/02/29 00:27:11;;;;;;;31.00;12.60;;;;;;;-1.68;100.00;101641.25;6045553;23;20226;-72
2024/02/29 00:29:38;;;;;;;37.47;14.57;;;;;;;-1.71;100.00;101626.16;6045772;23;20218;-71
2024/02/29 00:32:05;;;;;;;32.77;14.20;;;;;;;-1.79;100.00;101626.47;6045513;23;20230;-71
2024/02/29 00:34:32;;;;;;;33.80;13.70;;;;;;;-1.85;100.00;101626.53;6045233;23;20172;-71
2024/02/29 00:36:58;;;;;;;34.43;13.57;;;;;;;-1.90;100.00;101622.03;6045579;23;20178;-71
2024/02/29 00:39:26;;;;;;;35.47;14.57;;;;;;;-1.93;100.00;101625.03;6045790;23;20440;-72
2024/02/29 00:41:52;;;;;;;34.67;13.50;;;;;;;-1.96;100.00;101616.94;6045806;23;20219;-72
2024/02/29 00:44:19;;;;;;;30.87;12.47;;;;;;;-1.95;100.00;101623.69;6045733;23;20521;-72
2024/02/29 00:46:45;;;;;;;38.37;13.77;;;;;;;-1.95;100.00;101616.72;6045439;23;20192;-72
2024/02/29 00:49:13;;;;;;;36.43;14.17;;;;;;;-1.91;100.00;101611.91;6045749;23;20179;-72
2024/02/29 00:51:39;;;;;;;42.17;14.37;;;;;;;-2.00;100.00;101616.59;6045334;23;20223;-71
2024/02/29 00:54:06;;;;;;;35.77;12.97;;;;;;;-2.07;100.00;101602.91;6046480;23;20905;-71
2024/02/29 00:56:33;;;;;;;31.37;12.80;;;;;;;-2.08;100.00;101609.09;6047227;23;20884;-71
2024/02/29 00:59:01;;;;;;;34.70;13.33;;;;;;;-2.05;100.00;101610.47;6012692;23;20395;-71
2024/02/29 01:01:27;;;;;;;33.80;13.90;;;;;;;-2.03;100.00;101616.22;6047329;23;20742;-71
2024/02/29 01:03:54;;;;;;;37.70;13.67;;;;;;;-2.03;100.00;101608.47;6047480;23;20191;-71
2024/02/29 01:06:20;;;;;;;36.93;14.27;;;;;;;-2.00;100.00;101608.03;6047279;23;20408;-71
2024/02/29 01:08:46;;;;;;;42.50;14.20;;;;;;;-2.00;100.00;101605.44;6047023;23;20432;-72
2024/02/29 01:11:13;;;;;;;34.80;13.93;;;;;;;-2.01;100.00;101596.91;6046582;23;20404;-71
2024/02/29 01:13:40;;;;;;;36.83;14.50;;;;;;;-1.97;100.00;101595.44;6046972;23;20455;-72
2024/02/29 01:16:07;;;;;;;37.83;13.77;;;;;;;-1.97;100.00;101598.03;6047217;23;20404;-71
2024/02/29 01:18:34;;;;;;;37.33;13.30;;;;;;;-1.96;100.00;101598.81;6047396;23;20400;-72
2024/02/29 01:21:00;;;;;;;35.20;13.33;;;;;;;-1.97;100.00;101592.84;6046093;23;20403;-72
2024/02/29 01:23:26;;;;;;;39.40;14.00;;;;;;;-1.96;100.00;101591.84;6046293;23;20191;-72
2024/02/29 01:25:53;;;;;;;37.23;13.20;;;;;;;-1.97;100.00;101594.66;6047444;23;20410;-72
2024/02/29 01:28:19;;;;;;;37.23;14.77;;;;;;;-1.98;100.00;101590.50;6047227;23;20195;-72
2024/02/29 01:30:47;;;;;;;36.33;13.20;;;;;;;-1.97;100.00;101573.97;6047158;23;20639;-72
2024/02/29 01:33:14;;;;;;;34.80;13.60;;;;;;;-1.95;100.00;101579.69;6046894;23;20683;-71
2024/02/29 01:35:44;;;;;;;40.57;14.30;;;;;;;-1.96;100.00;101570.34;6036471;23;20458;-71
2024/02/29 01:38:20;;;;;;;42.17;14.57;;;;;;;-2.03;100.00;101580.78;6046557;23;20171;-71
2024/02/29 01:40:49;;;;;;;35.77;13.23;;;;;;;-2.03;100.00;101582.59;6012553;23;20258;-71
2024/02/29 01:43:25;;;;;;;36.37;13.73;;;;;;;-2.01;100.00;101576.19;6046392;23;20439;-72
2024/02/29 01:46:12;;;;;;;36.20;12.37;;;;;;;-2.01;100.00;101568.44;6047102;23;20669;-71
2024/02/29 01:48:49;;;;;;;42.77;14.47;;;;;;;-2.03;100.00;101562.66;6046915;23;20186;-71
2024/02/29 01:51:21;;;;;;;38.70;13.83;;;;;;;-2.01;100.00;101565.84;6047230;23;20459;-72
2024/02/29 01:53:57;;;;;;;38.53;13.17;;;;;;;-2.00;100.00;101558.84;6046813;23;20422;-72
2024/02/29 01:56:33;;;;;;;40.17;13.67;;;;;;;-2.01;100.00;101554.69;6046977;23;20400;-72
2024/02/29 01:59:07;;;;;;;39.43;14.43;;;;;;;-2.04;100.00;101555.13;6046588;23;20670;-71
2024/02/29 02:01:42;;;;;;;36.23;14.33;;;;;;;-2.04;100.00;101555.91;6046549;23;20400;-71
2024/02/29 02:04:16;;;;;;;37.37;12.90;;;;;;;-2.04;100.00;101555.91;6046317;23;20191;-72
2024/02/29 02:06:51;;;;;;;42.33;13.57;;;;;;;-2.03;100.00;101548.97;6045633;23;20433;-71
2024/02/29 02:09:31;;;;;;;41.70;13.53;;;;;;;-2.04;100.00;101548.16;6036818;23;20195;-72
2024/02/29 02:12:01;;;;;;;37.40;13.50;;;;;;;-2.06;100.00;101546.78;6046105;23;20231;-72
2024/02/29 02:14:35;;;;;;;41.10;14.20;;;;;;;-2.04;100.00;101544.78;6046160;23;20482;-71
2024/02/29 02:17:08;;;;;;;34.67;14.17;;;;;;;-2.05;100.00;101549.19;6046967;23;20475;-72
2024/02/29 02:19:42;;;;;;;43.47;14.40;;;;;;;-2.11;100.00;101544.06;6046293;23;20171;-71
2024/02/29 02:22:17;;;;;;;38.37;14.77;;;;;;;-2.14;100.00;101532.38;6046388;23;20519;-72
2024/02/29 02:24:52;;;;;;;45.07;15.50;;;;;;;-2.16;100.00;101536.19;6046470;23;20174;-72
2024/02/29 02:27:23;;;;;;;45.77;15.33;;;;;;;-2.16;100.00;101528.41;6046211;23;20185;-72
2024/02/29 02:29:52;;;;;;;43.77;14.63;;;;;;;-2.15;100.00;101528.22;6046160;23;20222;-71
2024/02/29 02:32:23;;;;;;;40.00;15.63;;;;;;;-2.12;100.00;101522.59;6046047;23;20264;-71
2024/02/29 02:34:51;;;;;;;47.27;16.03;;;;;;;-2.09;100.00;101522.16;6045797;23;20254;-71
2024/02/29 02:37:27;;;;;;;44.13;16.00;;;;;;;-2.05;100.00;101525.09;6036167;23;20411;-71
2024/02/29 02:39:58;;;;;;;43.37;14.93;;;;;;;-2.05;100.00;101523.31;6034769;23;20175;-71
2024/02/29 02:42:27;;;;;;;49.57;16.17;;;;;;;-2.00;100.00;101512.28;6035459;23;20302;-71
2024/02/29 02:45:00;;;;;;;51.60;16.27;;;;;;;-1.98;100.00;101511.03;6045734;23;20247;-71
2024/02/29 02:47:29;;;;;;;50.77;16.40;;;;;;;-1.96;100.00;101511.63;6045999;23;20396;-71
2024/02/29 02:50:04;;;;;;;42.77;15.43;;;;;;;-1.93;100.00;101500.06;6045765;23;20645;-71
2024/02/29 02:52:39;;;;;;;48.87;15.73;;;;;;;-1.91;100.00;101493.66;6046011;23;20195;-71
2024/02/29 02:55:06;;;;;;;46.70;15.13;;;;;;;-1.89;100.00;101496.00;6045699;23;21062;-71
2024/02/29 02:57:40;;;;;;;46.47;15.77;;;;;;;-1.87;100.00;101504.34;6045421;23;20262;-72
2024/02/29 03:00:19;;;;;;;47.03;16.53;;;;;;;-1.85;100.00;101508.28;6045802;23;20152;-72
2024/02/29 03:02:48;;;;;;;48.53;16.37;;;;;;;-1.83;100.00;101493.31;6045316;23;20196;-72
2024/02/29 03:05:26;;;;;;;48.83;15.40;;;;;;;-1.82;100.00;101492.28;6045650;23;20198;-72
2024/02/29 03:08:08;;;;;;;49.80;16.57;;;;;;;-1.80;100.00;101492.09;6036026;23;20175;-72
2024/02/29 03:10:37;;;;;;;43.13;15.20;;;;;;;-1.80;100.00;101492.09;6035688;23;20447;-72
2024/02/29 03:13:04;;;;;;;53.67;17.30;;;;;;;-1.81;100.00;101486.13;6045800;23;20673;-72
2024/02/29 03:15:35;;;;;;;49.70;16.00;;;;;;;-1.87;100.00;101487.00;6036183;23;20180;-72
2024/02/29 03:18:03;;;;;;;41.67;14.00;;;;;;;-1.88;100.00;101485.44;6033664;23;20175;-71
2024/02/29 03:20:33;;;;;;;50.23;16.77;;;;;;;-1.90;100.00;101497.81;6045849;23;20621;-71
2024/02/29 03:23:26;;;;;;;42.20;15.53;;;;;;;-1.93;100.00;101497.47;6035814;23;20211;-71
2024/02/29 03:25:56;;;;;;;43.27;16.23;;;;;;;-1.97;100.00;101501.50;6045948;23;20168;-71
2024/02/29 03:28:39;;;;;;;43.53;16.63;;;;;;;-1.99;100.00;101488.78;6045847;23;20589;-71
2024/02/29 03:31:14;;;;;;;42.07;15.33;;;;;;;-2.01;100.00;101482.25;6045964;23;20198;-71
2024/02/29 03:33:47;;;;;;;44.13;15.93;;;;;;;-1.98;100.00;101485.16;6045493;23;20201;-72
2024/02/29 03:36:27;;;;;;;43.33;16.40;;;;;;;-1.98;100.00;101482.59;6045793;23;20205;-72
2024/02/29 03:39:00;;;;;;;42.17;15.07;;;;;;;-2.01;100.00;101472.69;6036114;23;20424;-72
2024/02/29 03:41:29;;;;;;;45.10;16.07;;;;;;;-2.07;100.00;101480.53;6045855;23;20632;-71
2024/02/29 03:44:01;;;;;;;55.30;17.73;;;;;;;-2.10;100.00;101479.19;6044969;23;20198;-71
2024/02/29 03:46:35;;;;;;;43.03;15.37;;;;;;;-2.11;100.00;101476.81;6045991;23;20404;-72
2024/02/29 03:49:16;;;;;;;48.60;15.97;;;;;;;-2.14;100.00;101474.69;6010858;23;20200;-72
2024/02/29 03:51:47;;;;;;;44.30;15.93;;;;;;;-2.14;100.00;101480.63;6045588;23;20400;-72
2024/02/29 03:54:18;;;;;;;50.43;15.23;;;;;;;-2.16;100.00;101463.75;6045683;23;20406;-72
2024/02/29 03:56:58;;;;;;;52.00;17.83;;;;;;;-2.16;100.00;101468.91;6045358;23;20174;-72
2024/02/29 03:59:31;;;;;;;48.50;16.37;;;;;;;-2.17;100.00;101472.53;6045765;23;20459;-72
2024/02/29 04:02:01;;;;;;;59.00;18.63;;;;;;;-2.15;100.00;101480.84;6035312;23;20214;-71
2024/02/29 04:04:36;;;;;;;52.33;16.17;;;;;;;-2.12;100.00;101476.03;6045263;23;20175;-71
2024/02/29 04:07:19;;;;;;;49.90;17.87;;;;;;;-2.09;100.00;101474.78;6010790;23;20569;-72
2024/02/29 04:09:46;;;;;;;49.10;17.13;;;;;;;-2.05;100.00;101481.91;6046822;23;20191;-72
2024/02/29 04:12:13;;;;;;;57.73;18.40;;;;;;;-2.04;100.00;101480.09;6046797;23;20455;-72
2024/02/29 04:14:39;;;;;;;54.87;18.30;;;;;;;-2.01;100.00;101480.47;6047104;23;20183;-72
2024/02/29 04:17:05;;;;;;;49.77;17.10;;;;;;;-1.99;100.00;101462.09;6036574;23;20190;-72
2024/02/29 04:19:32;;;;;;;59.97;18.80;;;;;;;-1.99;100.00;101468.06;6047222;23;20399;-72
2024/02/29 04:21:58;;;;;;;59.17;17.77;;;;;;;-1.99;100.00;101464.69;6046562;23;20187;-72
2024/02/29 04:24:24;;;;;;;56.27;17.77;;;;;;;-1.98;100.00;101461.13;6046876;23;20168;-72
2024/02/29 04:26:52;;;;;;;57.77;19.43;;;;;;;-1.96;100.00;101456.50;6047339;23;20510;-72
2024/02/29 04:29:19;;;;;;;56.47;17.83;;;;;;;-1.92;100.00;101452.47;6048152;23;20652;-72
2024/02/29 04:31:47;;;;;;;58.93;18.40;;;;;;;-1.94;100.00;101444.09;6048775;23;20643;-72
2024/02/29 04:34:13;;;;;;;54.73;18.17;;;;;;;-1.94;100.00;101447.50;6048707;23;20637;-72
2024/02/29 04:36:39;;;;;;;60.20;18.63;;;;;;;-1.92;100.00;101444.69;6049208;23;20179;-72
2024/02/29 04:39:06;;;;;;;57.40;18.87;;;;;;;-1.93;100.00;101446.47;6048798;23;20175;-72
2024/02/29 04:41:34;;;;;;;54.23;18.63;;;;;;;-1.93;100.00;101448.28;6048745;23;20194;-72
2024/02/29 04:44:04;;;;;;;52.90;17.87;;;;;;;-1.94;100.00;101451.88;6047636;23;20199;-72
2024/02/29 04:46:31;;;;;;;59.70;19.77;;;;;;;-1.96;100.00;101444.34;6049109;23;20505;-72
2024/02/29 04:48:57;;;;;;;65.27;19.73;;;;;;;-1.96;100.00;101443.56;6048488;23;20171;-72
2024/02/29 04:51:24;;;;;;;65.73;19.63;;;;;;;-2.00;100.00;101447.59;6048798;23;20171;-72
2024/02/29 04:53:50;;;;;;;58.50;19.97;;;;;;;-2.03;100.00;101435.88;6013458;23;20226;-72
2024/02/29 04:56:16;;;;;;;55.03;18.83;;;;;;;-2.03;100.00;101432.53;6048848;23;20178;-72
2024/02/29 04:58:43;;;;;;;60.73;18.67;;;;;;;-2.05;100.00;101431.94;6048897;23;20502;-72
2024/02/29 05:01:13;;;;;;;66.87;19.27;;;;;;;-2.08;100.00;101430.59;6048538;23;20167;-72
2024/02/29 05:03:39;;;;;;;62.97;18.67;;;;;;;-2.10;100.00;101426.63;6048623;23;20247;-72
2024/02/29 05:06:09;;;;;;;61.10;18.50;;;;;;;-2.13;100.00;101433.03;6048727;23;20180;-72
2024/02/29 05:08:35;;;;;;;54.47;17.93;;;;;;;-2.13;100.00;101430.47;6048998;23;20168;-72
2024/02/29 05:11:02;;;;;;;50.03;17.77;;;;;;;-2.13;100.00;101430.47;6013753;23;20195;-72
2024/02/29 05:13:28;;;;;;;51.73;17.57;;;;;;;-2.14;100.00;101426.28;6049024;23;20420;-72
2024/02/29 05:15:56;;;;;;;60.80;18.10;;;;;;;-2.18;100.00;101425.16;6048500;23;20411;-72
2024/02/29 05:18:26;;;;;;;53.17;19.27;;;;;;;-2.23;100.00;101429.44;6013561;23;20294;-72
2024/02/29 05:20:53;;;;;;;58.43;19.60;;;;;;;-2.25;100.00;101423.66;6048424;23;20565;-73
2024/02/29 05:23:19;;;;;;;50.40;18.77;;;;;;;-2.26;100.00;101427.28;6013678;23;20203;-72
2024/02/29 05:25:45;;;;;;;51.63;18.87;;;;;;;-2.26;100.00;101420.31;6048451;23;20404;-72
2024/02/29 05:28:12;;;;;;;62.27;19.53;;;;;;;-2.26;100.00;101409.97;6048789;23;20400;-72
2024/02/29 05:30:41;;;;;;;51.73;18.53;;;;;;;-2.29;100.00;101419.97;6013417;23;20199;-72
2024/02/29 05:33:07;;;;;;;46.17;17.90;;;;;;;-2.28;100.00;101413.78;6048316;23;20444;-72
2024/02/29 05:35:36;;;;;;;53.27;18.03;;;;;;;-2.30;100.00;101406.25;6048301;23;20191;-72
2024/02/29 05:38:03;;;;;;;54.83;17.87;;;;;;;-2.34;100.00;101405.09;6048102;23;20408;-72
2024/02/29 05:40:29;;;;;;;50.73;18.40;;;;;;;-2.38;100.00;101405.78;6048701;23;20400;-72
2024/02/29 05:42:56;;;;;;;55.83;17.83;;;;;;;-2.40;100.00;101405.97;6048318;23;20426;-72
2024/02/29 05:45:22;;;;;;;50.70;17.43;;;;;;;-2.38;100.00;101405.78;6013556;23;20422;-72
2024/02/29 05:47:50;;;;;;;50.00;18.77;;;;;;;-2.39;100.00;101404.97;6048551;23;20171;-72
2024/02/29 05:50:16;;;;;;;51.77;18.30;;;;;;;-2.39;100.00;101407.56;6048425;23;20436;-72
2024/02/29 05:52:45;;;;;;;64.67;17.50;;;;;;;-2.38;100.00;101414.28;6047830;23;20274;-72
2024/02/29 05:55:12;;;;;;;55.00;17.10;;;;;;;-2.36;100.00;101424.44;6048387;23;20178;-72
2024/02/29 05:57:39;;;;;;;44.27;17.30;;;;;;;-2.32;100.00;101413.44;6048294;23;20171;-72
2024/02/29 06:00:08;;;;;;;50.33;17.83;;;;;;;-2.27;100.00;101415.34;6047776;23;20173;-72
2024/02/29 06:02:38;;;;;;;62.17;19.53;;;;;;;-2.24;100.00;101412.34;6048122;23;20183;-72
2024/02/29 06:05:05;;;;;;;61.30;19.00;;;;;;;-2.18;100.00;101414.81;6048126;23;20563;-72
2024/02/29 06:07:33;;;;;;;54.67;19.60;;;;;;;-2.13;100.00;101422.69;6047931;23;20550;-72
2024/02/29 06:10:01;;;;;;;54.03;19.83;;;;;;;-2.04;100.00;101428.34;6048004;23;20187;-72
2024/02/29 06:12:29;;;;;;;60.80;19.17;;;;;;;-1.99;100.00;101425.88;6047374;23;20242;-72
2024/02/29 06:14:55;;;;;;;61.70;19.47;;;;;;;-1.91;100.00;101423.78;6012388;23;20176;-73
2024/02/29 06:17:22;;;;;;;59.90;19.47;;;;;;;-1.82;100.00;101429.41;6047900;23;20625;-72
2024/02/29 06:19:51;;;;;;;68.07;20.60;;;;;;;-1.74;100.00;101426.47;6047530;23;20176;-72
2024/02/29 06:22:22;;;;;;;56.50;18.73;;;;;;;-1.66;100.00;101429.50;6047602;23;20243;-72
2024/02/29 06:24:49;;;;;;;71.30;21.60;;;;;;;-1.60;100.00;101426.06;6047445;23;20483;-72
2024/02/29 06:27:22;;;;;;;69.90;19.07;;;;;;;-1.53;100.00;101423.34;6012191;23;20176;-72
2024/02/29 06:29:48;;;;;;;76.93;19.60;;;;;;;-1.45;100.00;101420.41;6046776;23;20192;-72
2024/02/29 06:32:15;;;;;;;75.00;22.27;;;;;;;-1.42;100.00;101418.16;6045649;23;20191;-71
2024/02/29 06:34:41;;;;;;;74.77;20.93;;;;;;;-1.35;100.00;101421.41;6047331;23;20174;-73
2024/02/29 06:37:09;;;;;;;79.63;19.70;;;;;;;-1.28;100.00;101418.72;6046641;23;20195;-73
2024/02/29 06:39:35;;;;;;;83.07;19.83;;;;;;;-1.24;100.00;101420.63;6046803;23;20168;-73
2024/02/29 06:42:02;;;;;;;67.20;19.40;;;;;;;-1.17;100.00;101417.91;6046764;23;20183;-73
2024/02/29 06:44:29;;;;;;;73.00;20.57;;;;;;;-1.12;100.00;101424.75;6011404;23;20230;-73
2024/02/29 06:46:56;;;;;;;79.90;20.57;;;;;;;-1.05;100.00;101421.28;6046583;23;20211;-73
2024/02/29 06:49:26;;;;;;;68.43;19.30;;;;;;;-0.98;100.00;101421.94;6045526;23;20565;-72
2024/02/29 06:51:53;;;;;;;74.07;18.63;;;;;;;-0.89;100.00;101417.97;6046012;23;20199;-73
2024/02/29 06:54:19;;;;;;;70.23;19.17;;;;;;;-0.87;100.00;101417.50;6011757;23;20629;-73
2024/02/29 06:56:46;;;;;;;72.20;20.53;;;;;;;-0.79;100.00;101423.34;6043782;23;20223;-72
2024/02/29 06:59:12;;;;;;;74.67;19.53;;;;;;;-0.75;100.00;101417.47;6043381;23;20175;-72
2024/02/29 07:01:40;;;;;;;66.57;19.47;;;;;;;-0.71;100.00;101416.75;6041051;23;20178;-72
2024/02/29 07:04:09;;;;;;;75.27;20.27;;;;;;;-0.68;100.00;101413.72;6006138;23;20183;-72
2024/02/29 07:06:38;;;;;;;73.40;20.70;;;;;;;-0.64;100.00;101416.63;6042902;23;20466;-72
2024/02/29 07:09:05;;;;;;;71.13;21.23;;;;;;;-0.62;100.00;101417.22;6042634;23;20566;-72
2024/02/29 07:11:31;;;;;;;67.73;19.37;;;;;;;-0.57;100.00;101408.72;6007674;23;20251;-72
2024/02/29 07:13:59;;;;;;;66.40;19.23;;;;;;;-0.54;100.00;101406.44;6008770;23;20278;-73
2024/02/29 07:16:26;;;;;;;58.37;19.73;;;;;;;-0.51;100.00;101404.16;6045848;23;20529;-73
2024/02/29 07:18:57;;;;;;;70.13;19.97;;;;;;;-0.46;100.00;101406.09;6045406;23;20171;-73
2024/02/29 07:21:23;;;;;;;64.63;18.43;;;;;;;-0.43;100.00;101404.84;6045377;23;20168;-73
2024/02/29 07:23:50;;;;;;;54.63;19.63;;;;;;;-0.40;100.00;101410.34;6045724;23;20215;-73
2024/02/29 07:26:16;;;;;;;67.87;19.97;;;;;;;-0.36;100.00;101406.28;6045793;23;20501;-73
2024/02/29 07:28:43;;;;;;;67.47;21.03;;;;;;;-0.32;100.00;101404.75;6044056;23;20246;-72
2024/02/29 07:31:09;;;;;;;63.57;19.27;;;;;;;-0.27;100.00;101410.84;6042836;23;20218;-72
2024/02/29 07:33:37;;;;;;;64.00;20.60;;;;;;;-0.24;100.00;101399.97;6042624;23;20191;-72
2024/02/29 07:36:05;;;;;;;62.10;20.30;;;;;;;-0.19;100.00;101405.25;6007786;23;20258;-72
2024/02/29 07:38:31;;;;;;;68.83;20.40;;;;;;;-0.13;100.00;101406.94;6042842;23;20175;-72
2024/02/29 07:40:58;;;;;;;60.87;18.43;;;;;;;-0.08;100.00;101414.00;6042313;23;20250;-72
2024/02/29 07:43:24;;;;;;;61.80;19.23;;;;;;;-0.04;100.00;101412.50;6032226;23;20211;-73
2024/02/29 07:45:51;;;;;;;63.93;19.07;;;;;;;-0.02;100.00;101411.25;6042096;23;20250;-72
2024/02/29 07:48:17;;;;;;;69.77;20.03;;;;;;;0.02;100.00;101416.75;6044434;23;20494;-73
2024/02/29 07:50:44;;;;;;;57.63;19.47;;;;;;;0.06;100.00;101415.28;6044962;23;20442;-73
2024/02/29 07:53:11;;;;;;;62.63;19.33;;;;;;;0.10;100.00;101411.97;6044970;23;20648;-73
2024/02/29 07:55:38;;;;;;;55.93;19.20;;;;;;;0.13;100.00;101415.91;6044527;23;20516;-73
2024/02/29 07:58:06;;;;;;;68.50;21.00;;;;;;;0.18;100.00;101410.78;6044454;23;20246;-73
2024/02/29 08:00:37;;;;;;;57.97;21.27;;;;;;;0.25;100.00;101420.00;6009894;23;20175;-73
2024/02/29 08:03:04;;;;;;;58.47;20.37;;;;;;;0.28;100.00;101419.53;6044917;23;20195;-73
2024/02/29 08:05:31;;;;;;;61.27;19.43;;;;;;;0.32;100.00;101418.00;6044997;23;20172;-73
2024/02/29 08:07:59;;;;;;;60.23;20.10;;;;;;;0.37;100.00;101412.13;6035088;23;20745;-73
2024/02/29 08:10:26;;;;;;;57.30;18.43;;;;;;;0.42;100.00;101412.19;6044119;23;20265;-73
2024/02/29 08:12:53;;;;;;;59.00;18.13;;;;;;;0.44;100.00;101407.53;6044157;23;20225;-73
2024/02/29 08:15:22;;;;;;;56.47;19.20;;;;;;;0.49;100.00;101405.00;6044296;23;20168;-73
2024/02/29 08:17:50;;;;;;;58.27;19.23;;;;;;;0.54;100.00;101411.06;6043779;23;20186;-73
2024/02/29 08:20:25;;;;;;;51.70;18.17;;;;;;;0.58;100.00;101409.53;6043706;23;20182;-73
2024/02/29 08:22:53;;;;;;;55.90;19.33;;;;;;;0.65;100.00;101410.19;6043989;23;20201;-73
2024/02/29 08:25:23;;;;;;;55.67;20.20;;;;;;;0.71;100.00;101411.81;6044263;23;20226;-73
2024/02/29 08:27:51;;;;;;;57.70;19.07;;;;;;;0.79;100.00;101413.97;6043818;23;20171;-73
2024/02/29 08:30:18;;;;;;;53.47;19.93;;;;;;;0.87;100.00;101408.38;6044096;23;20175;-73
2024/02/29 08:32:44;;;;;;;51.63;19.93;;;;;;;0.90;100.00;101407.13;6043453;23;20191;-73
2024/02/29 08:35:11;;;;;;;54.80;19.03;;;;;;;0.92;100.00;101405.84;6041700;23;20168;-73
2024/02/29 08:37:42;;;;;;;59.60;20.43;;;;;;;0.94;100.00;101413.41;6043212;23;20174;-73
2024/02/29 08:40:09;;;;;;;58.57;19.47;;;;;;;0.97;100.00;101408.50;6043562;23;20182;-73
2024/02/29 08:42:39;;;;;;;51.80;18.20;;;;;;;1.00;100.00;101400.22;6043314;23;20736;-73
2024/02/29 08:45:08;;;;;;;51.20;18.43;;;;;;;1.06;100.00;101406.25;6017667;23;20620;-73
2024/02/29 08:47:35;;;;;;;56.50;18.73;;;;;;;1.12;100.00;101390.50;6015221;23;20251;-72
2024/02/29 08:50:02;;;;;;;56.37;19.23;;;;;;;1.20;100.00;101394.47;6014639;23;20199;-73
2024/02/29 08:52:30;;;;;;;57.13;17.87;;;;;;;1.29;100.00;101390.38;6014108;23;20204;-73
2024/02/29 08:54:57;;;;;;;60.30;19.30;;;;;;;1.35;100.00;101387.59;6004244;23;20207;-73
2024/02/29 08:57:23;;;;;;;49.90;18.60;;;;;;;1.44;100.00;101390.53;5979826;23;20255;-73
2024/02/29 08:59:50;;;;;;;60.90;20.03;;;;;;;1.50;100.00;101390.34;6013610;23;20176;-73
2024/02/29 09:02:21;;;;;;;57.13;19.70;;;;;;;1.56;100.00;101378.19;6013234;23;20188;-73
2024/02/29 09:04:47;;;;;;;56.10;19.30;;;;;;;1.61;100.00;101389.41;6013300;23;20174;-73
2024/02/29 09:07:13;;;;;;;55.10;19.07;;;;;;;1.70;100.00;101380.13;6014302;23;20168;-73
2024/02/29 09:09:41;;;;;;;53.90;19.53;;;;;;;1.78;100.00;101378.91;5979124;23;20183;-73
2024/02/29 09:12:09;;;;;;;57.33;19.03;;;;;;;1.86;100.00;101376.63;6013922;23;20208;-73
2024/02/29 09:14:39;;;;;;;57.67;19.20;;;;;;;1.94;100.00;101372.78;6014211;23;20175;-73
2024/02/29 09:17:06;;;;;;;61.00;19.87;;;;;;;1.96;100.00;101370.69;6015771;23;20168;-73
2024/02/29 09:19:33;;;;;;;62.43;19.93;;;;;;;1.99;100.00;101367.59;6016149;23;20182;-73
2024/02/29 09:22:04;;;;;;;62.17;21.63;;;;;;;2.04;100.00;101367.66;6015093;23;20188;-73
2024/02/29 09:24:31;;;;;;;55.97;20.70;;;;;;;2.08;100.00;101368.72;6015571;23;20172;-73
2024/02/29 09:27:00;;;;;;;50.47;18.87;;;;;;;2.13;100.00;101368.75;6015308;23;21002;-73
2024/02/29 09:29:26;;;;;;;61.17;19.97;;;;;;;2.16;100.00;101368.25;6015315;23;20172;-73
2024/02/29 09:31:53;;;;;;;65.77;20.57;;;;;;;2.24;100.00;101357.38;6014836;23;20192;-73
2024/02/29 09:34:19;;;;;;;56.13;19.87;;;;;;;2.28;100.00;101361.81;6015078;23;20176;-73
2024/02/29 09:36:47;;;;;;;65.20;20.77;;;;;;;2.33;100.00;101350.66;6012405;23;20176;-72
2024/02/29 09:39:13;;;;;;;57.13;19.50;;;;;;;2.40;100.00;101346.78;6009788;23;20172;-72
2024/02/29 09:41:39;;;;;;;60.80;19.73;;;;;;;2.48;100.00;101348.09;6012472;23;20242;-73
2024/02/29 09:44:08;;;;;;;70.90;23.10;;;;;;;2.56;100.00;101337.22;5988167;23;20183;-72
2024/02/29 09:46:35;;;;;;;70.27;22.47;;;;;;;2.65;100.00;101335.69;6013956;23;20638;-73
2024/02/29 09:49:04;;;;;;;68.90;21.47;;;;;;;2.73;100.00;101341.19;6013731;23;20192;-73
2024/02/29 09:51:31;;;;;;;66.13;20.33;;;;;;;2.83;100.00;101337.84;6014220;23;20188;-73
2024/02/29 09:54:01;;;;;;;66.57;21.93;;;;;;;2.94;100.00;101344.66;6013765;23;20575;-73
2024/02/29 09:56:29;;;;;;;66.13;21.30;;;;;;;3.02;100.00;101337.09;6012787;23;20256;-73
2024/02/29 09:58:57;;;;;;;67.67;23.03;;;;;;;3.10;100.00;101335.81;6013100;23;20652;-73
2024/02/29 10:01:24;;;;;;;78.57;23.70;;;;;;;3.20;100.00;101328.03;6013392;23;20172;-73
2024/02/29 10:03:51;;;;;;;74.03;23.57;;;;;;;3.31;100.00;101329.63;6009061;23;20538;-73
2024/02/29 10:06:18;;;;;;;71.67;22.80;;;;;;;3.42;100.00;101318.91;6001826;23;20182;-73
2024/02/29 10:08:45;;;;;;;69.53;23.77;;;;;;;3.50;100.00;101317.63;6012686;23;20180;-73
2024/02/29 10:11:12;;;;;;;83.43;26.00;;;;;;;3.61;100.00;101322.59;6013309;23;20215;-73
2024/02/29 10:13:40;;;;;;;81.20;25.17;;;;;;;3.74;100.00;101323.91;6001021;23;20287;-73
2024/02/29 10:16:10;;;;;;;78.40;25.60;;;;;;;3.85;100.00;101315.00;6000085;23;20657;-73
2024/02/29 10:18:39;;;;;;;80.07;24.70;;;;;;;3.96;100.00;101306.13;6010828;23;20239;-72
2024/02/29 10:21:10;;;;;;;86.57;26.30;;;;;;;4.09;100.00;101305.59;6006541;23;20195;-72
2024/02/29 10:23:36;;;;;;;77.93;24.10;;;;;;;4.20;100.00;101294.81;6006014;23;20681;-73
2024/02/29 10:26:03;;;;;;;89.53;27.80;;;;;;;4.30;100.00;101305.25;6005585;23;20199;-72
2024/02/29 10:28:30;;;;;;;92.33;28.87;;;;;;;4.41;100.00;101301.56;5990682;23;20263;-70
2024/02/29 10:30:58;;;;;;;83.80;27.40;;;;;;;4.51;100.00;101291.06;5980178;23;20168;-70
2024/02/29 10:33:25;;;;;;;89.60;27.50;;;;;;;4.64;100.00;101287.09;5992499;23;20197;-69
2024/02/29 10:35:52;;;;;;;82.73;25.53;;;;;;;4.73;100.00;101295.94;6009088;23;20179;-71
2024/02/29 10:38:18;;;;;;;87.80;27.77;;;;;;;4.84;100.00;101279.13;6011211;23;20172;-69
2024/02/29 10:40:49;;;;;;;88.00;26.90;;;;;;;4.95;100.00;101272.78;6010708;23;20674;-71
2024/02/29 10:45:50;;;;;;;85.43;27.97;;;;;;;5.15;100.00;101259.56;5952187;24;20789;-70
2024/02/29 10:48:22;;;;;;;78.63;26.93;;;;;;;5.29;100.00;101258.69;5941012;24;20177;-70
2024/02/29 10:50:59;;;;;;;82.40;26.87;;;;;;;5.44;100.00;101247.31;5952079;24;20172;-70
2024/02/29 10:53:37;;;;;;;71.17;26.47;;;;;;;5.55;100.00;101254.03;5941790;24;20355;-70
2024/02/29 10:56:12;;;;;;;78.07;26.40;;;;;;;5.63;100.00;101245.56;5953345;24;20184;-69
2024/02/29 10:58:42;;;;;;;66.07;27.20;;;;;;;5.75;100.00;101244.13;5951292;24;20172;-71
2024/02/29 11:01:12;;;;;;;61.83;25.00;;;;;;;5.85;100.00;101236.19;5952135;24;20172;-69
2024/02/29 11:03:39;;;;;;;56.17;21.77;;;;;;;6.00;100.00;101224.78;5952648;23;20252;-71
2024/02/29 11:06:07;;;;;;;46.47;20.73;;;;;;;6.10;100.00;101232.53;5952707;24;20634;-70
2024/02/29 11:08:34;;;;;;;43.97;20.30;;;;;;;6.21;100.00;101224.25;5952822;24;20179;-70
2024/02/29 11:11:01;;;;;;;37.43;18.53;;;;;;;6.32;100.00;101225.69;5940600;24;20188;-73
2024/02/29 11:13:28;;;;;;;32.87;17.27;;;;;;;6.44;100.00;101220.06;5918759;24;20688;-73